Hlavní strana
METAR-TAF:

METAR-TAF

Letiště :

Horta, Azory, Portugalsko

zeměpisná šířka: 38-31N, zeměpisná délka: 028-43W, výška: 40 m

Aktuální stav počasí

Zpráva byla vytvořena před 21 minutami, v 20:00 UTC
Severní vítr 5 kt
Teplota 14°C
Vlhkost vzduchu 77%
Tlak 1031 hPa
Viditelnost 10 km a více
Skoro jasno ve výšce 2000 ft

METAR: LPHR 052000Z 01005KT 9999 FEW020 14/10 Q1031

Čas: 19:21 (20:21 UTC)

Předpověď počasí

Zpráva byla vytvořena před 6 hodinami a 21 minutami, v 14:00 UTC
Předpověď platná od 05 v 15 UTC do 05 v 24 UTC
Severozápadní vítr 8 kt
Viditelnost 10 km a více
Skoro jasno ve výšce 2000 ft
Oblačno až skoro zataženo ve výšce 3500 ft
Dočasný
od 05 v 15 UTC do 05 v 24 UTC
Polojasno ve výšce 3000 ft
Změna
od 05 v 18 UTC do 05 v 21 UTC
vítr z různých směrů 5 kt

TAF: LPHR 051400Z 0515/0524 31008KT 9999 FEW020 BKN035 TEMPO 0515/0524 SCT030 BECMG 0518/0521 VRB05KT

Stav a předpovědi počasí z více než 4 000 letišť (zprávy METAR a TAF).

Červené a žluté tečky na mapě představují dostupné meteorologické stanice.

Když kurzor umístíte na tečku, zobrazí se název stanice.

Pak kliknutím zobrazíte stav a předpověď počasí.

Chcete-li změnit mapu, kliknutím na zelené tlačítko se znaménkem +mapu přiblížíte, kliknutím na zelené tlačítko se znaménkem – mapu oddálíte a kliknutím na zelené šipky přejdete na sousední mapy.


METAR-TAF: